createdAt,value
2018-09-12T00:00:25.469Z,98830.20
2018-09-12T00:02:55.451Z,98825.41
2018-09-12T00:05:25.563Z,98822.19
2018-09-12T00:07:56.750Z,98821.66
2018-09-12T00:10:26.989Z,98828.33
2018-09-12T00:12:57.448Z,98821.77
2018-09-12T00:15:28.975Z,98815.91
2018-09-12T00:17:59.113Z,98812.81
2018-09-12T00:20:29.236Z,98806.25
2018-09-12T00:22:59.298Z,98798.20
2018-09-12T00:25:29.530Z,98801.00
2018-09-12T00:27:59.569Z,98809.48
2018-09-12T00:30:29.705Z,98803.93
2018-09-12T00:32:59.982Z,98800.45
2018-09-12T00:35:30.164Z,98793.25
2018-09-12T00:38:01.637Z,98798.50
2018-09-12T00:40:33.302Z,98793.43
2018-09-12T00:43:03.374Z,98798.19
2018-09-12T00:45:34.087Z,98792.02
2018-09-12T00:50:43.964Z,98788.85
2018-09-12T00:53:14.174Z,98791.91
2018-09-12T00:55:44.253Z,98788.37
2018-09-12T00:58:14.840Z,98785.81
2018-09-12T01:00:45.195Z,98782.50
2018-09-12T01:03:16.699Z,98785.66
2018-09-12T01:05:49.901Z,98783.10
2018-09-12T01:08:20.704Z,98788.81
2018-09-12T01:10:51.013Z,98786.95
2018-09-12T01:13:21.377Z,98783.39
2018-09-12T01:15:51.559Z,98779.30
2018-09-12T01:18:22.416Z,98772.57
2018-09-12T01:20:52.937Z,98779.84
2018-09-12T01:23:24.795Z,98777.61
2018-09-12T01:25:55.828Z,98773.81
2018-09-12T01:28:25.897Z,98773.61
2018-09-12T01:30:56.579Z,98770.11
2018-09-12T01:33:26.985Z,98768.34
2018-09-12T01:35:57.836Z,98767.09
2018-09-12T01:38:27.933Z,98770.78
2018-09-12T01:40:59.581Z,98767.80
2018-09-12T01:43:30.215Z,98763.76
2018-09-12T01:46:00.303Z,98763.53
2018-09-12T01:48:30.726Z,98754.55
2018-09-12T01:51:00.867Z,98755.58
2018-09-12T01:53:32.435Z,98756.56
2018-09-12T01:56:02.563Z,98755.77
2018-09-12T01:58:32.559Z,98750.85
2018-09-12T02:01:02.677Z,98760.56
2018-09-12T02:03:33.731Z,98755.61
2018-09-12T02:06:04.153Z,98755.42
2018-09-12T02:08:35.285Z,98747.00
2018-09-12T02:11:08.167Z,98747.30
2018-09-12T02:13:40.049Z,98745.30
2018-09-12T02:16:10.143Z,98744.44
2018-09-12T02:18:40.491Z,98741.72
2018-09-12T02:21:11.073Z,98736.25
2018-09-12T02:23:41.456Z,98740.02
2018-09-12T02:26:11.699Z,98742.38
2018-09-12T02:28:42.606Z,98738.05
2018-09-12T02:31:14.103Z,98734.91
2018-09-12T02:33:44.279Z,98729.59
2018-09-12T02:36:19.643Z,98733.66
2018-09-12T02:38:56.437Z,98727.95
2018-09-12T02:41:27.954Z,98724.09
2018-09-12T02:43:58.383Z,98726.22
2018-09-12T02:46:28.435Z,98721.53
2018-09-12T02:48:58.533Z,98719.27
2018-09-12T02:51:29.617Z,98717.83
2018-09-12T02:54:00.414Z,98713.58
2018-09-12T02:56:31.434Z,98719.11
2018-09-12T02:59:01.816Z,98719.73
2018-09-12T03:01:32.582Z,98713.64
2018-09-12T03:04:19.671Z,98717.69
2018-09-12T03:06:50.212Z,98719.00
2018-09-12T03:09:20.258Z,98720.42
2018-09-12T03:11:51.080Z,98714.62
2018-09-12T03:14:21.586Z,98717.30
2018-09-12T03:16:51.951Z,98719.00
2018-09-12T03:19:22.053Z,98711.47
2018-09-12T03:21:59.707Z,98715.14
2018-09-12T03:24:31.620Z,98708.29
2018-09-12T03:27:01.709Z,98713.53
2018-09-12T03:29:32.762Z,98712.94
2018-09-12T03:32:02.961Z,98707.65
2018-09-12T03:34:33.829Z,98708.94
2018-09-12T03:37:04.250Z,98711.33
2018-09-12T03:39:34.319Z,98709.06
2018-09-12T03:42:04.429Z,98701.44
2018-09-12T03:44:36.314Z,98705.03
2018-09-12T03:47:06.449Z,98698.64
2018-09-12T03:49:36.585Z,98696.55
2018-09-12T03:52:07.470Z,98700.03
2018-09-12T03:54:37.776Z,98700.88
2018-09-12T03:57:08.958Z,98700.31
2018-09-12T03:59:38.967Z,98701.62
2018-09-12T04:02:09.044Z,98698.78
2018-09-12T04:04:39.463Z,98704.35
2018-09-12T04:07:10.582Z,98700.88
2018-09-12T04:09:41.447Z,98701.86
2018-09-12T04:12:11.541Z,98703.22
2018-09-12T04:14:42.582Z,98700.02
2018-09-12T04:17:14.545Z,98700.14
2018-09-12T04:19:44.578Z,98692.28
2018-09-12T04:22:14.673Z,98695.76
2018-09-12T04:24:45.333Z,98691.13
2018-09-12T04:27:15.533Z,98689.78
2018-09-12T04:29:45.582Z,98693.50
2018-09-12T04:32:17.653Z,98691.83
2018-09-12T04:34:47.671Z,98692.06
2018-09-12T04:37:17.788Z,98691.55
2018-09-12T04:39:47.807Z,98691.49
2018-09-12T04:42:17.996Z,98693.89
2018-09-12T04:44:48.224Z,98692.13
2018-09-12T04:47:18.762Z,98694.34
2018-09-12T04:49:50.117Z,98695.53
2018-09-12T04:52:20.676Z,98699.34
2018-09-12T04:54:50.842Z,98696.72
2018-09-12T04:57:21.821Z,98696.38
2018-09-12T04:59:52.068Z,98698.66
2018-09-12T05:02:22.122Z,98694.80
2018-09-12T05:04:52.892Z,98694.34
2018-09-12T05:07:23.598Z,98691.38
2018-09-12T05:09:53.782Z,98692.74
2018-09-12T05:12:24.604Z,98693.92
2018-09-12T05:14:54.642Z,98696.42
2018-09-12T05:17:25.582Z,98689.98
2018-09-12T05:19:55.742Z,98684.12
2018-09-12T05:22:26.162Z,98679.66
2018-09-12T05:24:56.432Z,98675.25
2018-09-12T05:27:27.111Z,98677.34
2018-09-12T05:30:01.738Z,98676.20
2018-09-12T05:32:32.740Z,98674.98
2018-09-12T05:35:06.234Z,98672.06
2018-09-12T05:37:37.721Z,98672.55
2018-09-12T05:40:08.181Z,98676.03
2018-09-12T05:42:38.576Z,98670.09
2018-09-12T05:45:08.966Z,98669.95
2018-09-12T05:47:39.678Z,98670.42
2018-09-12T05:50:10.246Z,98679.36
2018-09-12T05:52:41.544Z,98674.37
2018-09-12T05:55:11.686Z,98671.64
2018-09-12T05:57:55.408Z,98678.98
2018-09-12T06:00:28.191Z,98674.10
2018-09-12T06:02:58.784Z,98671.52
2018-09-12T06:05:28.930Z,98670.33
2018-09-12T06:07:59.836Z,98663.28
2018-09-12T06:10:32.078Z,98666.92
2018-09-12T06:13:02.659Z,98664.17
2018-09-12T06:15:34.122Z,98673.52
2018-09-12T06:18:04.516Z,98667.34
2018-09-12T06:20:36.123Z,98662.58
2018-09-12T06:23:07.313Z,98666.77
2018-09-12T06:25:38.376Z,98665.11
2018-09-12T06:28:08.496Z,98666.87
2018-09-12T06:30:39.332Z,98667.87
2018-09-12T06:33:09.875Z,98661.39
2018-09-12T06:35:40.925Z,98664.66
2018-09-12T06:38:11.763Z,98665.63
2018-09-12T06:40:43.221Z,98659.29
2018-09-12T06:43:13.123Z,98661.67
2018-09-12T06:45:43.407Z,98661.52
2018-09-12T06:48:13.497Z,98659.39
2018-09-12T06:50:43.976Z,98656.31
2018-09-12T06:53:14.772Z,98655.42
2018-09-12T06:55:45.033Z,98655.67
2018-09-12T06:58:16.231Z,98652.53
2018-09-12T07:00:47.774Z,98649.28
2018-09-12T07:03:17.889Z,98651.82
2018-09-12T07:05:47.993Z,98650.63
2018-09-12T07:08:18.158Z,98647.51
2018-09-12T07:10:49.221Z,98642.06
2018-09-12T07:13:19.408Z,98649.50
2018-09-12T07:15:51.261Z,98645.48
2018-09-12T07:18:21.415Z,98646.41
2018-09-12T07:20:52.894Z,98644.31
2018-09-12T07:23:23.002Z,98641.59
2018-09-12T07:25:53.988Z,98635.03
2018-09-12T07:28:26.090Z,98637.05
2018-09-12T07:30:57.960Z,98641.33
2018-09-12T07:33:29.067Z,98644.44
2018-09-12T07:35:59.190Z,98641.31
2018-09-12T07:38:30.246Z,98647.99
2018-09-12T07:41:01.038Z,98644.27
2018-09-12T07:46:56.931Z,98651.77
2018-09-12T07:49:31.861Z,98651.52
2018-09-12T07:52:02.115Z,98651.62
2018-09-12T07:54:34.223Z,98653.34
2018-09-12T07:57:06.023Z,98661.47
2018-09-12T07:59:36.158Z,98649.28
2018-09-12T08:02:07.032Z,98656.66
2018-09-12T08:04:38.391Z,98654.06
2018-09-12T08:07:09.103Z,98659.56
2018-09-12T08:09:39.327Z,98654.99
2018-09-12T08:12:10.187Z,98650.31
2018-09-12T08:14:41.289Z,98646.92
2018-09-12T08:17:11.378Z,98646.34
2018-09-12T08:19:41.513Z,98654.73
2018-09-12T08:22:13.040Z,98650.14
2018-09-12T08:24:45.057Z,98647.99
2018-09-12T08:27:16.035Z,98645.34
2018-09-12T08:29:48.870Z,98647.42
2018-09-12T08:32:21.144Z,98650.97
2018-09-12T08:35:02.050Z,98651.45
2018-09-12T08:37:38.391Z,98648.38
2018-09-12T08:40:08.744Z,98657.38
2018-09-12T08:42:39.409Z,98652.61
2018-09-12T08:45:09.827Z,98649.05
2018-09-12T08:47:41.325Z,98649.88
2018-09-12T08:50:11.889Z,98647.20
2018-09-12T08:52:42.692Z,98638.70
2018-09-12T08:55:14.806Z,98640.90
2018-09-12T08:57:45.048Z,98634.94
2018-09-12T09:00:16.295Z,98634.86
2018-09-12T09:02:48.728Z,98631.57
2018-09-12T09:05:19.872Z,98631.22
2018-09-12T09:07:52.208Z,98624.70
2018-09-12T09:10:23.525Z,98623.50
2018-09-12T09:12:54.870Z,98627.92
2018-09-12T09:15:28.254Z,98624.66
2018-09-12T09:17:59.406Z,98623.23
2018-09-12T09:20:30.053Z,98631.69
2018-09-12T09:23:06.337Z,98632.28
2018-09-12T09:25:43.244Z,98631.10
2018-09-12T09:28:15.474Z,98634.44
2018-09-12T09:30:47.472Z,98636.75
2018-09-12T09:33:19.046Z,98634.25
2018-09-12T09:35:50.300Z,98632.13
2018-09-12T09:38:20.564Z,98626.95
2018-09-12T09:40:50.904Z,98634.42
2018-09-12T09:43:21.288Z,98623.59
2018-09-12T09:45:51.643Z,98637.48
2018-09-12T09:48:23.478Z,98632.38
2018-09-12T09:50:54.048Z,98626.18
2018-09-12T09:53:24.204Z,98624.34
2018-09-12T09:55:54.343Z,98628.59
2018-09-12T09:58:27.838Z,98623.22
2018-09-12T10:01:07.188Z,98626.09
2018-09-12T10:03:46.676Z,98616.78
2018-09-12T10:06:21.203Z,98612.23
2018-09-12T10:08:56.026Z,98593.05
2018-09-12T10:11:31.345Z,98584.89
2018-09-12T10:14:08.756Z,98580.30
2018-09-12T10:16:40.849Z,98578.63
2018-09-12T10:19:15.389Z,98581.59
2018-09-12T10:21:46.921Z,98574.22
2018-09-12T10:24:18.481Z,98576.44
2018-09-12T10:26:49.317Z,98562.80
2018-09-12T10:29:22.074Z,98567.73
2018-09-12T10:31:59.112Z,98568.59
2018-09-12T10:34:29.371Z,98571.97
2018-09-12T10:37:02.166Z,98569.78
2018-09-12T10:39:32.917Z,98558.69
2018-09-12T10:42:07.400Z,98558.11
2018-09-12T10:44:37.609Z,98559.31
2018-09-12T10:47:08.439Z,98553.94
2018-09-12T10:49:40.825Z,98553.94
2018-09-12T10:52:11.614Z,98546.80
2018-09-12T10:54:41.925Z,98555.17
2018-09-12T10:57:11.895Z,98548.33
2018-09-12T10:59:42.827Z,98543.22
2018-09-12T11:02:13.461Z,98535.81
2018-09-12T11:04:44.059Z,98530.86
2018-09-12T11:07:15.490Z,98537.03
2018-09-12T11:09:45.543Z,98534.22
2018-09-12T11:12:15.712Z,98525.34
2018-09-12T11:14:46.341Z,98526.23
2018-09-12T11:17:16.523Z,98527.82
2018-09-12T11:19:46.710Z,98529.98
2018-09-12T11:22:33.158Z,98513.38
2018-09-12T11:25:03.985Z,98517.23
2018-09-12T11:27:36.055Z,98509.79
2018-09-12T11:30:06.872Z,98513.59
2018-09-12T11:32:47.991Z,98516.05
2018-09-12T11:35:19.673Z,98513.29
2018-09-12T11:37:49.809Z,98528.79
2018-09-12T11:40:20.033Z,98530.98
2018-09-12T11:42:50.093Z,98532.16
2018-09-12T11:45:21.239Z,98518.30
2018-09-12T11:47:51.913Z,98521.31
2018-09-12T11:50:24.757Z,98500.39
2018-09-12T11:52:54.953Z,98517.20
2018-09-12T11:55:25.841Z,98526.63
2018-09-12T11:57:56.592Z,98516.97
2018-09-12T12:00:27.403Z,98507.56
2018-09-12T12:02:57.690Z,98508.14
2018-09-12T12:05:29.639Z,98504.27
2018-09-12T12:08:00.087Z,98505.36
2018-09-12T12:10:31.016Z,98504.63
2018-09-12T12:13:01.142Z,98516.73
2018-09-12T12:15:32.959Z,98501.02
2018-09-12T12:18:04.107Z,98499.31
2018-09-12T12:20:35.141Z,98498.34
2018-09-12T12:23:07.131Z,98501.58
2018-09-12T12:25:37.365Z,98492.06
2018-09-12T12:28:07.521Z,98487.06
2018-09-12T12:30:37.972Z,98472.17
2018-09-12T12:33:08.199Z,98476.81
2018-09-12T12:35:38.287Z,98471.05
2018-09-12T12:38:09.374Z,98457.83
2018-09-12T12:40:41.239Z,98445.34
2018-09-12T12:43:15.287Z,98435.77
2018-09-12T12:45:47.725Z,98419.18
2018-09-12T12:48:20.145Z,98410.81
2018-09-12T12:50:51.112Z,98405.66
2018-09-12T12:53:21.466Z,98409.05
2018-09-12T12:55:54.080Z,98419.23
2018-09-12T12:58:25.428Z,98408.27
2018-09-12T13:00:57.764Z,98393.13
2018-09-12T13:03:29.038Z,98415.63
2018-09-12T13:05:59.514Z,98404.32
2018-09-12T13:08:29.614Z,98392.39
2018-09-12T13:11:00.008Z,98386.37
2018-09-12T13:13:30.210Z,98394.50
2018-09-12T13:16:01.510Z,98374.69
2018-09-12T13:18:31.674Z,98377.47
2018-09-12T13:21:03.234Z,98372.09
2018-09-12T13:23:33.352Z,98382.54
2018-09-12T13:26:06.130Z,98366.81
2018-09-12T13:28:36.334Z,98364.31
2018-09-12T13:31:12.362Z,98369.30
2018-09-12T13:33:43.345Z,98366.06
2018-09-12T13:36:15.129Z,98358.39
2018-09-12T13:38:45.947Z,98354.78
2018-09-12T13:41:16.046Z,98345.80
2018-09-12T13:43:48.393Z,98337.70
2018-09-12T13:46:18.318Z,98339.50
2018-09-12T13:48:49.714Z,98340.30
2018-09-12T13:51:20.312Z,98334.13
2018-09-12T13:53:51.207Z,98340.09
2018-09-12T13:56:21.721Z,98337.61
2018-09-12T13:58:53.947Z,98319.80
2018-09-12T14:01:26.765Z,98326.93
2018-09-12T14:03:58.884Z,98332.86
2018-09-12T14:06:31.603Z,98323.39
2018-09-12T14:09:03.059Z,98321.23
2018-09-12T14:11:34.064Z,98315.11
2018-09-12T14:14:04.633Z,98307.90
2018-09-12T14:16:36.049Z,98317.41
2018-09-12T14:19:06.301Z,98320.16
2018-09-12T14:21:38.260Z,98317.42
2018-09-12T14:24:09.641Z,98322.23
2018-09-12T14:26:41.027Z,98313.81
2018-09-12T14:29:11.194Z,98307.53
2018-09-12T14:31:41.923Z,98320.97
2018-09-12T14:34:12.049Z,98312.98
2018-09-12T14:36:43.176Z,98303.41
2018-09-12T14:39:14.378Z,98320.84
2018-09-12T14:41:46.173Z,98318.90
2018-09-12T14:44:17.663Z,98314.63
2018-09-12T14:46:47.838Z,98307.93
2018-09-12T14:49:19.769Z,98302.50
2018-09-12T14:51:52.319Z,98298.41
2018-09-12T14:54:22.362Z,98299.13
2018-09-12T14:56:52.613Z,98299.47
2018-09-12T14:59:23.837Z,98297.15
2018-09-12T15:01:55.387Z,98300.66
2018-09-12T15:04:26.647Z,98298.94
2018-09-12T15:06:57.339Z,98294.08
2018-09-12T15:09:28.587Z,98291.56
2018-09-12T15:12:00.496Z,98293.73
2018-09-12T15:14:31.346Z,98290.17
2018-09-12T15:17:02.717Z,98289.61
2018-09-12T15:19:39.321Z,98285.19
2018-09-12T15:22:09.934Z,98290.95
2018-09-12T15:24:40.722Z,98291.72
2018-09-12T15:27:11.514Z,98280.01
2018-09-12T15:29:42.691Z,98282.48
2018-09-12T15:32:14.173Z,98284.78
2018-09-12T15:34:45.245Z,98292.03
2018-09-12T15:37:17.679Z,98287.84
2018-09-12T15:39:49.255Z,98279.81
2018-09-12T15:42:20.336Z,98279.54
2018-09-12T15:44:51.478Z,98272.50
2018-09-12T15:47:21.870Z,98271.72
2018-09-12T15:49:53.056Z,98274.13
2018-09-12T15:52:24.106Z,98277.48
2018-09-12T15:54:58.631Z,98269.33
2018-09-12T15:57:28.813Z,98273.61
2018-09-12T15:59:58.908Z,98269.50
2018-09-12T16:02:30.276Z,98266.49
2018-09-12T16:05:01.448Z,98269.16
2018-09-12T16:07:31.868Z,98261.06
2018-09-12T16:10:02.006Z,98262.28
2018-09-12T16:12:33.312Z,98255.56
2018-09-12T16:15:04.607Z,98253.90
2018-09-12T16:17:34.789Z,98251.70
2018-09-12T16:20:05.666Z,98247.63
2018-09-12T16:22:36.115Z,98254.70
2018-09-12T16:25:07.536Z,98257.95
2018-09-12T16:27:38.182Z,98253.95
2018-09-12T16:30:08.880Z,98256.78
2018-09-12T16:32:39.106Z,98246.39
2018-09-12T16:35:10.364Z,98245.31
2018-09-12T16:37:42.562Z,98241.66
2018-09-12T16:40:12.816Z,98248.06
2018-09-12T16:42:43.912Z,98247.47
2018-09-12T16:45:13.974Z,98250.79
2018-09-12T16:47:44.250Z,98237.88
2018-09-12T16:50:15.347Z,98245.19
2018-09-12T16:52:45.592Z,98240.61
2018-09-12T16:55:16.166Z,98237.48
2018-09-12T16:57:48.846Z,98233.80
2018-09-12T17:00:19.073Z,98233.59
2018-09-12T17:02:49.771Z,98236.26
2018-09-12T17:05:20.167Z,98239.64
2018-09-12T17:07:51.356Z,98239.74
2018-09-12T17:10:22.252Z,98237.94
2018-09-12T17:12:52.370Z,98243.64
2018-09-12T17:15:23.902Z,98241.46
2018-09-12T17:17:56.131Z,98241.61
2018-09-12T17:20:27.864Z,98239.53
2018-09-12T17:22:58.959Z,98244.19
2018-09-12T17:25:30.308Z,98245.80
2018-09-12T17:28:00.574Z,98242.03
2018-09-12T17:30:30.966Z,98242.11
2018-09-12T17:33:02.469Z,98249.72
2018-09-12T17:35:34.877Z,98247.73
2018-09-12T17:38:08.130Z,98240.70
2018-09-12T17:40:39.624Z,98242.08
2018-09-12T17:43:10.578Z,98241.78
2018-09-12T17:45:41.105Z,98242.47
2018-09-12T17:48:11.836Z,98239.75
2018-09-12T17:50:43.338Z,98243.92
2018-09-12T17:53:14.734Z,98250.30
2018-09-12T17:55:46.052Z,98248.27
2018-09-12T17:58:16.930Z,98249.59
2018-09-12T18:00:47.976Z,98254.42
2018-09-12T18:03:18.870Z,98259.72
2018-09-12T18:05:49.732Z,98258.88
2018-09-12T18:08:21.876Z,98254.67
2018-09-12T18:10:53.949Z,98260.83
2018-09-12T18:13:24.156Z,98261.61
2018-09-12T18:15:55.194Z,98264.75
2018-09-12T18:18:25.290Z,98270.55
2018-09-12T18:20:55.418Z,98272.08
2018-09-12T18:23:27.064Z,98273.61
2018-09-12T18:26:01.528Z,98270.48
2018-09-12T18:28:32.606Z,98276.78
2018-09-12T18:31:03.390Z,98268.69
2018-09-12T18:33:39.756Z,98272.49
2018-09-12T18:36:10.540Z,98279.85
2018-09-12T18:38:41.827Z,98284.14
2018-09-12T18:41:12.403Z,98271.98
2018-09-12T18:43:42.603Z,98282.33
2018-09-12T18:46:12.806Z,98278.06
2018-09-12T18:48:44.368Z,98289.23
2018-09-12T18:51:15.497Z,98292.30
2018-09-12T18:53:48.115Z,98293.95
2018-09-12T18:56:19.942Z,98290.02
2018-09-12T18:58:52.039Z,98298.80
2018-09-12T19:01:33.203Z,98291.42
2018-09-12T19:04:03.973Z,98295.91
2018-09-12T19:06:34.005Z,98294.53
2018-09-12T19:09:04.839Z,98297.05
2018-09-12T19:11:36.126Z,98295.77
2018-09-12T19:14:06.282Z,98291.04
2018-09-12T19:16:37.531Z,98293.80
2018-09-12T19:19:07.727Z,98300.59
2018-09-12T19:21:38.909Z,98301.78
2018-09-12T19:24:09.867Z,98301.43
2018-09-12T19:26:40.836Z,98300.14
2018-09-12T19:29:11.818Z,98299.66
2018-09-12T19:31:42.730Z,98301.30
2018-09-12T19:34:12.814Z,98299.11
2018-09-12T19:36:43.933Z,98301.05
2018-09-12T19:39:15.555Z,98302.26
2018-09-12T19:41:46.341Z,98304.81
2018-09-12T19:44:18.180Z,98303.70
2018-09-12T19:46:49.567Z,98309.13
2018-09-12T19:49:22.195Z,98306.65
2018-09-12T19:51:52.891Z,98309.25
2018-09-12T19:54:23.823Z,98309.98
2018-09-12T19:56:54.141Z,98304.11
2018-09-12T19:59:26.183Z,98304.91
2018-09-12T20:01:56.774Z,98310.45
2018-09-12T20:04:30.105Z,98308.17
2018-09-12T20:07:01.611Z,98310.16
2018-09-12T20:09:37.362Z,98311.77
2018-09-12T20:12:09.215Z,98309.94
2018-09-12T20:14:39.351Z,98312.22
2018-09-12T20:17:09.776Z,98311.98
2018-09-12T20:19:40.843Z,98309.11
2018-09-12T20:22:11.831Z,98315.16
2018-09-12T20:24:43.226Z,98310.72
2018-09-12T20:27:13.326Z,98310.76
2018-09-12T20:29:47.182Z,98307.91
2018-09-12T20:32:17.405Z,98314.70
2018-09-12T20:34:48.932Z,98311.58
2018-09-12T20:37:19.363Z,98309.33
2018-09-12T20:39:49.568Z,98308.68
2018-09-12T20:42:19.948Z,98305.97
2018-09-12T20:44:50.109Z,98303.20
2018-09-12T20:47:23.803Z,98309.76
2018-09-12T20:49:54.932Z,98306.98
2018-09-12T20:52:26.110Z,98306.50
2018-09-12T20:54:56.191Z,98302.30
2018-09-12T20:57:26.482Z,98301.95
2018-09-12T20:59:57.060Z,98304.98
2018-09-12T21:02:28.105Z,98296.30
2018-09-12T21:04:59.392Z,98304.73
2018-09-12T21:07:34.235Z,98303.55
2018-09-12T21:10:06.128Z,98298.97
2018-09-12T21:12:38.633Z,98298.14
2018-09-12T21:15:10.382Z,98298.19
2018-09-12T21:17:42.078Z,98303.06
2018-09-12T21:20:12.225Z,98305.03
2018-09-12T21:22:42.499Z,98308.16
2018-09-12T21:25:13.806Z,98302.48
2018-09-12T21:27:44.240Z,98303.35
2018-09-12T21:30:14.964Z,98300.83
2018-09-12T21:32:45.149Z,98300.89
2018-09-12T21:35:16.430Z,98301.89
2018-09-12T21:37:46.762Z,98296.61
2018-09-12T21:40:24.574Z,98296.38
2018-09-12T21:42:54.657Z,98294.91
2018-09-12T21:45:28.285Z,98299.50
2018-09-12T21:48:00.447Z,98299.25
2018-09-12T21:50:30.585Z,98296.85
2018-09-12T21:53:01.099Z,98287.09
2018-09-12T21:55:31.353Z,98290.12
2018-09-12T21:58:01.581Z,98293.70
2018-09-12T22:00:32.445Z,98292.72
2018-09-12T22:03:04.755Z,98291.63
2018-09-12T22:05:35.444Z,98294.39
2018-09-12T22:08:07.194Z,98293.44
2018-09-12T22:10:38.321Z,98290.81
2018-09-12T22:13:09.462Z,98291.52
2018-09-12T22:15:39.654Z,98290.81
2018-09-12T22:18:10.690Z,98289.47
2018-09-12T22:20:40.842Z,98288.26
2018-09-12T22:23:13.235Z,98288.16
2018-09-12T22:25:44.949Z,98281.77
2018-09-12T22:28:15.849Z,98280.67
2018-09-12T22:30:45.878Z,98284.02
2018-09-12T22:33:16.767Z,98281.84
2018-09-12T22:35:47.684Z,98286.52
2018-09-12T22:38:17.879Z,98277.73
2018-09-12T22:40:48.275Z,98272.19
2018-09-12T22:43:20.331Z,98269.95
2018-09-12T22:45:51.277Z,98272.93
2018-09-12T22:48:22.183Z,98269.80
2018-09-12T22:50:52.357Z,98264.88
2018-09-12T22:53:22.461Z,98264.33
2018-09-12T22:55:53.094Z,98271.34
2018-09-12T22:58:23.719Z,98266.80
2018-09-12T23:00:53.837Z,98270.50
2018-09-12T23:03:24.299Z,98264.52
2018-09-12T23:05:54.304Z,98265.00
2018-09-12T23:08:24.625Z,98262.97
2018-09-12T23:10:54.991Z,98256.36
2018-09-12T23:13:25.662Z,98261.17
2018-09-12T23:15:56.496Z,98267.30
2018-09-12T23:18:27.509Z,98270.09
2018-09-12T23:20:57.615Z,98270.11
2018-09-12T23:23:27.899Z,98259.89
2018-09-12T23:25:58.137Z,98260.97
2018-09-12T23:28:28.871Z,98256.05
2018-09-12T23:30:59.875Z,98251.23
2018-09-12T23:33:31.239Z,98248.83
2018-09-12T23:36:02.926Z,98240.03
2018-09-12T23:38:34.734Z,98240.63
2018-09-12T23:41:07.129Z,98243.98
2018-09-12T23:43:37.845Z,98240.28
2018-09-12T23:46:09.805Z,98240.53
2018-09-12T23:48:42.984Z,98247.26
2018-09-12T23:51:14.158Z,98245.70
2018-09-12T23:53:44.452Z,98255.19
2018-09-12T23:56:16.098Z,98276.62
2018-09-12T23:58:46.660Z,98313.03
